Terminal Aerodrome Forecast
Issued by NWS

Home | Current Version | Previous Version | Text Only | Print | Product List | Glossary On
Versions: 1 2 3 4 5 6 7 8 9 10 11 12 13 14 15 16 17 18 19 20 21 22 23 24 25
815
FTUS43 KAPX 262343
TAFPLN
TAF
KPLN 262343Z 2700/2724 26010G18KT P6SM FEW050 SCT250
     FM270200 VRB05KT P6SM SCT250
     FM270400 00000KT 4SM BR SCT012 SCT200
     FM271000 VRB03KT 2SM BR BKN006
     FM271500 12006KT P6SM SCT035
     FM272300 09010KT P6SM VCTS BKN040CB=

USA.gov is the U.S. government's official web portal to all federal, state and local government web resources and services.